createdAt,value
2022-11-14T18:47:36.868Z,990.81
2022-11-14T18:48:36.829Z,990.72
2022-11-14T18:49:36.812Z,990.77
2022-11-14T18:50:36.799Z,990.70
2022-11-14T18:51:36.787Z,990.76
2022-11-14T18:52:36.760Z,990.75
2022-11-14T18:53:36.737Z,990.72
2022-11-14T18:54:36.725Z,990.65
2022-11-14T18:55:36.706Z,990.67
2022-11-14T18:56:36.707Z,990.63
2022-11-14T18:57:36.673Z,990.62
2022-11-14T18:58:36.655Z,990.66
2022-11-14T18:59:36.633Z,990.65
2022-11-14T19:00:36.651Z,990.69
2022-11-14T19:01:36.684Z,990.68
2022-11-14T19:02:36.588Z,990.73
2022-11-14T19:03:36.577Z,990.69
2022-11-14T19:04:36.550Z,990.71
2022-11-14T19:05:36.531Z,990.70
2022-11-14T19:06:36.515Z,990.73
2022-11-14T19:07:36.594Z,990.67
2022-11-14T19:08:36.483Z,990.67
2022-11-14T19:09:36.467Z,990.68
2022-11-14T19:10:36.446Z,990.65
2022-11-14T19:11:36.432Z,990.62
2022-11-14T19:12:36.417Z,990.64
2022-11-14T19:13:36.397Z,990.63
2022-11-14T19:14:36.443Z,990.63
2022-11-14T19:15:36.368Z,990.65
2022-11-14T19:16:36.366Z,990.69
2022-11-14T19:17:36.325Z,990.69
2022-11-14T19:18:36.313Z,990.70
2022-11-14T19:19:36.300Z,990.72
2022-11-14T19:20:36.273Z,990.69
2022-11-14T19:21:36.258Z,990.71
2022-11-14T19:22:36.245Z,990.68
2022-11-14T19:23:36.224Z,990.69
2022-11-14T19:24:36.208Z,990.65
2022-11-14T19:25:38.080Z,990.70
2022-11-14T19:26:36.189Z,990.68
2022-11-14T19:27:36.157Z,990.64
2022-11-14T19:28:36.139Z,990.63
2022-11-14T19:29:36.123Z,990.66
2022-11-14T19:30:36.117Z,990.67
2022-11-14T19:31:36.089Z,990.68
2022-11-14T19:32:36.073Z,990.62
2022-11-14T19:33:36.057Z,990.61
2022-11-14T19:34:36.045Z,990.62
2022-11-14T19:35:36.036Z,990.64
2022-11-14T19:36:58.966Z,990.65
2022-11-14T19:37:35.998Z,990.61
2022-11-14T19:38:35.974Z,990.62
2022-11-14T19:39:35.962Z,990.62
2022-11-14T19:40:35.941Z,990.64
2022-11-14T19:41:35.920Z,990.60
2022-11-14T19:42:35.903Z,990.62
2022-11-14T19:43:35.886Z,990.61
2022-11-14T19:44:35.872Z,990.65
2022-11-14T19:45:35.857Z,990.57
2022-11-14T19:46:35.852Z,990.61
2022-11-14T19:47:35.828Z,990.62
2022-11-14T19:48:35.802Z,990.70
2022-11-14T19:49:35.787Z,990.64
2022-11-14T19:50:35.770Z,990.63
2022-11-14T19:51:35.763Z,990.72
2022-11-14T19:52:35.737Z,990.70
2022-11-14T19:53:35.722Z,990.71
2022-11-14T19:54:35.703Z,990.66
2022-11-14T19:55:35.683Z,990.65
2022-11-14T19:56:35.670Z,990.64
2022-11-14T19:57:35.661Z,990.68
2022-11-14T19:58:35.635Z,990.67
2022-11-14T19:59:35.620Z,990.65
2022-11-14T20:00:35.603Z,990.73
2022-11-14T20:01:35.686Z,990.69
2022-11-14T20:02:35.567Z,990.72
2022-11-14T20:03:35.553Z,990.74
2022-11-14T20:04:37.991Z,990.71
2022-11-14T20:05:35.516Z,990.76
2022-11-14T20:06:35.503Z,990.74
2022-11-14T20:07:35.601Z,990.76
2022-11-14T20:08:35.467Z,990.72
2022-11-14T20:09:35.451Z,990.72
2022-11-14T20:10:35.434Z,990.75
2022-11-14T20:11:35.423Z,990.72
2022-11-14T20:12:35.400Z,990.69
2022-11-14T20:13:35.383Z,990.72
2022-11-14T20:14:35.366Z,990.65
2022-11-14T20:15:35.355Z,990.67
2022-11-14T20:16:35.336Z,990.68
2022-11-14T20:17:35.320Z,990.67
2022-11-14T20:18:35.299Z,990.69
2022-11-14T20:19:35.282Z,990.63
2022-11-14T20:20:35.266Z,990.69
2022-11-14T20:21:35.255Z,990.64
2022-11-14T20:22:35.884Z,990.69
2022-11-14T20:23:35.222Z,990.66
2022-11-14T20:24:35.201Z,990.64
2022-11-14T20:25:35.186Z,990.65
2022-11-14T20:26:35.170Z,990.69
2022-11-14T20:27:35.151Z,990.67
2022-11-14T20:28:35.134Z,990.66
2022-11-14T20:29:35.120Z,990.63
2022-11-14T20:30:35.104Z,990.64
2022-11-14T20:31:35.087Z,990.68
2022-11-14T20:32:35.068Z,990.68
2022-11-14T20:33:35.055Z,990.65
2022-11-14T20:34:35.034Z,990.65
2022-11-14T20:35:35.017Z,990.65
2022-11-14T20:36:56.515Z,990.62
2022-11-14T20:37:34.987Z,990.61
2022-11-14T20:38:34.966Z,990.64
2022-11-14T20:39:34.958Z,990.61
2022-11-14T20:40:34.938Z,990.64
2022-11-14T20:41:34.920Z,990.60
2022-11-14T20:42:34.905Z,990.63
2022-11-14T20:43:34.887Z,990.64
2022-11-14T20:44:34.870Z,990.66
2022-11-14T20:45:34.856Z,990.67
2022-11-14T20:46:34.835Z,990.74
2022-11-14T20:47:34.817Z,990.76
2022-11-14T20:48:34.801Z,990.79
2022-11-14T20:49:34.785Z,990.74
2022-11-14T20:50:34.774Z,990.76
2022-11-14T20:51:34.752Z,990.80
2022-11-14T20:52:34.738Z,990.77
2022-11-14T20:53:34.719Z,990.75
2022-11-14T20:54:34.704Z,990.78
2022-11-14T20:55:34.695Z,990.78
2022-11-14T20:56:34.671Z,990.78
2022-11-14T20:57:34.855Z,990.75
2022-11-14T20:58:34.640Z,990.77
2022-11-14T20:59:34.622Z,990.76
2022-11-14T21:00:34.607Z,990.75
2022-11-14T21:01:36.878Z,990.73
2022-11-14T21:02:34.570Z,990.69
2022-11-14T21:03:34.856Z,990.73
2022-11-14T21:04:34.536Z,990.69
2022-11-14T21:05:34.523Z,990.73
2022-11-14T21:06:34.506Z,990.74
2022-11-14T21:07:34.591Z,990.76
2022-11-14T21:08:34.572Z,990.72
2022-11-14T21:09:34.457Z,990.70
2022-11-14T21:10:34.439Z,990.72
2022-11-14T21:11:34.426Z,990.71
2022-11-14T21:12:34.405Z,990.72
2022-11-14T21:13:34.449Z,990.73
2022-11-14T21:14:34.376Z,990.72
2022-11-14T21:15:34.361Z,990.76
2022-11-14T21:16:34.341Z,990.76
2022-11-14T21:17:34.323Z,990.74
2022-11-14T21:18:34.608Z,990.73
2022-11-14T21:19:34.291Z,990.80
2022-11-14T21:20:34.273Z,990.76
2022-11-14T21:21:34.255Z,990.76
2022-11-14T21:22:34.240Z,990.76
2022-11-14T21:23:34.226Z,990.69
2022-11-14T21:24:39.391Z,990.66
2022-11-14T21:25:34.192Z,990.71
2022-11-14T21:26:34.174Z,990.68
2022-11-14T21:27:34.162Z,990.68
2022-11-14T21:28:34.446Z,990.73
2022-11-14T21:29:34.126Z,990.69
2022-11-14T21:30:34.111Z,990.69
2022-11-14T21:31:34.097Z,990.69
2022-11-14T21:32:34.075Z,990.70
2022-11-14T21:33:34.321Z,990.65
2022-11-14T21:34:34.041Z,990.68
2022-11-14T21:35:34.033Z,990.70
2022-11-14T21:36:49.407Z,990.70
2022-11-14T21:37:33.997Z,990.70
2022-11-14T21:38:33.987Z,990.74
2022-11-14T21:39:33.961Z,990.76
2022-11-14T21:40:33.947Z,990.68
2022-11-14T21:41:33.935Z,990.72
2022-11-14T21:42:33.916Z,990.68
2022-11-14T21:43:33.999Z,990.72
2022-11-14T21:44:33.877Z,990.70
2022-11-14T21:45:33.862Z,990.69
2022-11-14T21:46:33.846Z,990.70
2022-11-14T21:47:33.831Z,990.70
2022-11-14T21:48:37.487Z,990.72
2022-11-14T21:49:33.801Z,990.71
2022-11-14T21:50:33.783Z,990.72
2022-11-14T21:51:33.766Z,990.75
2022-11-14T21:52:33.752Z,990.79
2022-11-14T21:53:34.082Z,990.76
2022-11-14T21:54:33.718Z,990.79
2022-11-14T21:55:33.701Z,990.78
2022-11-14T21:56:33.684Z,990.77
2022-11-14T21:57:33.670Z,990.74
2022-11-14T21:58:33.651Z,990.75
2022-11-14T21:59:33.652Z,990.80
2022-11-14T22:00:33.617Z,990.75
2022-11-14T22:01:33.640Z,990.79
2022-11-14T22:02:33.583Z,990.77
2022-11-14T22:03:33.959Z,990.76
2022-11-14T22:04:33.554Z,990.76
2022-11-14T22:05:33.535Z,990.76
2022-11-14T22:06:33.519Z,990.78
2022-11-14T22:07:33.574Z,990.77
2022-11-14T22:08:33.491Z,990.77
2022-11-14T22:09:33.471Z,990.75
2022-11-14T22:10:33.455Z,990.80
2022-11-14T22:11:33.437Z,990.81
2022-11-14T22:12:33.421Z,990.80
2022-11-14T22:13:33.809Z,990.85
2022-11-14T22:14:33.389Z,990.86
2022-11-14T22:15:33.403Z,990.86
2022-11-14T22:16:33.355Z,990.86
2022-11-14T22:17:33.342Z,990.86
2022-11-14T22:18:33.321Z,990.89
2022-11-14T22:19:33.304Z,990.90
2022-11-14T22:20:33.290Z,990.87
2022-11-14T22:21:33.273Z,990.89
2022-11-14T22:22:33.259Z,990.90
2022-11-14T22:23:33.611Z,990.91
2022-11-14T22:24:33.223Z,990.90
2022-11-14T22:25:33.216Z,990.92
2022-11-14T22:26:33.196Z,990.91
2022-11-14T22:27:33.176Z,990.90
2022-11-14T22:28:33.161Z,990.95
2022-11-14T22:29:33.182Z,990.97
2022-11-14T22:30:33.124Z,990.99
2022-11-14T22:31:33.112Z,990.99
2022-11-14T22:32:33.095Z,991.02
2022-11-14T22:33:33.428Z,991.02
2022-11-14T22:34:33.062Z,991.02
2022-11-14T22:35:33.044Z,991.02
2022-11-14T22:36:33.030Z,991.02
2022-11-14T22:37:33.016Z,991.02
2022-11-14T22:38:32.998Z,990.97
2022-11-14T22:39:32.980Z,991.00
2022-11-14T22:40:32.962Z,990.98
2022-11-14T22:41:33.633Z,991.03
2022-11-14T22:42:32.930Z,990.96
2022-11-14T22:43:33.061Z,990.96
2022-11-14T22:44:32.911Z,990.99
2022-11-14T22:45:32.888Z,991.00
2022-11-14T22:46:32.864Z,991.01
2022-11-14T22:47:32.850Z,990.98
2022-11-14T22:48:32.831Z,991.00
2022-11-14T22:49:32.820Z,991.05
2022-11-14T22:50:39.990Z,991.00
2022-11-14T22:52:36.759Z,991.01
2022-11-14T22:53:36.726Z,991.07
2022-11-14T22:55:40.696Z,991.01
2022-11-14T22:56:40.661Z,991.05
2022-11-14T22:58:44.635Z,991.09
2022-11-14T22:59:44.603Z,991.04
2022-11-14T23:01:37.483Z,991.08
2022-11-14T23:02:37.468Z,991.03
2022-11-14T23:04:41.443Z,991.06
2022-11-14T23:05:41.404Z,991.05
2022-11-14T23:07:45.353Z,991.05
2022-11-14T23:08:45.377Z,991.05
2022-11-14T23:10:49.298Z,991.06
2022-11-14T23:11:49.251Z,991.09
2022-11-14T23:13:53.205Z,991.02
2022-11-14T23:14:53.169Z,991.04
2022-11-14T23:16:57.140Z,990.95
2022-11-14T23:17:57.107Z,990.95
2022-11-14T23:20:02.026Z,990.94
2022-11-14T23:21:01.027Z,990.94
2022-11-14T23:23:04.996Z,990.92
2022-11-14T23:24:04.953Z,990.92
2022-11-14T23:26:08.921Z,990.93
2022-11-14T23:27:08.885Z,990.92
2022-11-14T23:29:12.853Z,990.97
2022-11-14T23:30:12.812Z,990.92
2022-11-14T23:32:16.765Z,990.93
2022-11-14T23:33:16.748Z,990.97
2022-11-14T23:35:20.694Z,990.94
2022-11-14T23:36:20.663Z,990.94
2022-11-14T23:38:24.618Z,990.93
2022-11-14T23:39:24.592Z,990.90
2022-11-14T23:41:17.500Z,990.90
2022-11-14T23:42:17.444Z,990.87
2022-11-14T23:43:17.426Z,990.86
2022-11-14T23:44:17.409Z,990.86
2022-11-14T23:45:17.392Z,990.88
2022-11-14T23:46:17.378Z,990.86
2022-11-14T23:47:17.360Z,990.86
2022-11-14T23:48:17.343Z,990.84
2022-11-14T23:49:17.329Z,990.81
2022-11-14T23:50:17.308Z,990.85
2022-11-14T23:51:17.291Z,990.84
2022-11-14T23:52:17.276Z,990.85
2022-11-14T23:53:17.259Z,990.79
2022-11-14T23:54:17.241Z,990.79
2022-11-14T23:55:17.224Z,990.79
2022-11-14T23:56:17.212Z,990.73
2022-11-14T23:57:17.193Z,990.72
2022-11-14T23:58:17.174Z,990.69
2022-11-14T23:59:17.159Z,990.67
